createdAt,value
2018-04-19T00:00:40.536Z,22.47
2018-04-19T00:03:08.970Z,20.43
2018-04-19T00:05:37.338Z,20.67
2018-04-19T00:08:05.740Z,20.80
2018-04-19T00:10:34.213Z,20.73
2018-04-19T00:13:02.833Z,21.07
2018-04-19T00:15:32.101Z,21.60
2018-04-19T00:18:01.282Z,21.43
2018-04-19T00:20:29.694Z,20.53
2018-04-19T00:22:58.824Z,22.03
2018-04-19T00:25:27.308Z,20.57
2018-04-19T00:27:55.793Z,21.00
2018-04-19T00:30:24.170Z,21.30
2018-04-19T00:32:52.656Z,20.70
2018-04-19T00:35:21.085Z,20.20
2018-04-19T00:37:49.865Z,21.27
2018-04-19T00:40:18.261Z,21.37
2018-04-19T00:42:47.439Z,20.17
2018-04-19T00:45:15.814Z,22.33
2018-04-19T00:47:44.171Z,20.80
2018-04-19T00:50:12.636Z,20.57
2018-04-19T00:52:58.851Z,22.03
2018-04-19T00:55:27.245Z,22.40
2018-04-19T00:57:55.630Z,21.50
2018-04-19T01:00:23.975Z,21.30
2018-04-19T01:02:52.357Z,21.20
2018-04-19T01:05:20.708Z,21.57
2018-04-19T01:07:49.061Z,21.87
2018-04-19T01:10:18.201Z,23.57
2018-04-19T01:12:46.586Z,23.73
2018-04-19T01:15:15.051Z,22.50
2018-04-19T01:17:43.401Z,22.30
2018-04-19T01:20:12.508Z,24.00
2018-04-19T01:22:40.863Z,23.93
2018-04-19T01:25:09.228Z,22.90
2018-04-19T01:27:37.605Z,23.57
2018-04-19T01:30:05.955Z,22.37
2018-04-19T01:32:34.347Z,23.77
2018-04-19T01:35:02.681Z,25.00
2018-04-19T01:37:31.904Z,24.77
2018-04-19T01:40:00.301Z,25.00
2018-04-19T01:42:28.669Z,26.63
2018-04-19T01:44:57.093Z,25.93
2018-04-19T01:47:26.245Z,26.47
2018-04-19T01:49:54.591Z,27.20
2018-04-19T01:52:22.944Z,25.63
2018-04-19T01:54:51.288Z,26.93
2018-04-19T01:57:19.657Z,27.10
2018-04-19T01:59:48.764Z,26.80
2018-04-19T02:02:17.114Z,27.43
2018-04-19T02:04:45.546Z,25.80
2018-04-19T02:07:14.669Z,26.87
2018-04-19T02:09:43.779Z,28.60
2018-04-19T02:12:12.629Z,27.40
2018-04-19T02:14:40.977Z,28.50
2018-04-19T02:17:09.766Z,28.47
2018-04-19T02:19:38.128Z,28.47
2018-04-19T02:22:06.528Z,27.17
2018-04-19T02:24:34.891Z,28.10
2018-04-19T02:27:03.250Z,29.47
2018-04-19T02:29:31.606Z,28.40
2018-04-19T02:32:01.914Z,28.57
2018-04-19T02:34:30.406Z,28.50
2018-04-19T02:36:59.563Z,30.17
2018-04-19T02:39:27.944Z,29.97
2018-04-19T02:41:56.372Z,29.80
2018-04-19T02:44:25.527Z,29.03
2018-04-19T02:46:53.873Z,31.20
2018-04-19T02:49:22.234Z,31.63
2018-04-19T02:51:51.352Z,31.03
2018-04-19T02:54:19.706Z,31.50
2018-04-19T02:56:49.061Z,31.58
2018-04-19T02:59:17.435Z,31.93
2018-04-19T03:01:45.771Z,32.27
2018-04-19T03:04:14.366Z,31.30
2018-04-19T03:06:43.147Z,30.73
2018-04-19T03:09:11.509Z,33.13
2018-04-19T03:11:40.668Z,32.43
2018-04-19T03:14:09.071Z,32.03
2018-04-19T03:16:38.223Z,32.47
2018-04-19T03:19:06.714Z,32.73
2018-04-19T03:21:35.098Z,31.43
2018-04-19T03:24:03.503Z,31.43
2018-04-19T03:26:31.942Z,32.27
2018-04-19T03:29:00.386Z,33.03
2018-04-19T03:31:28.910Z,34.97
2018-04-19T03:33:57.261Z,32.60
2018-04-19T03:36:25.665Z,33.13
2018-04-19T03:38:54.006Z,33.67
2018-04-19T03:41:23.146Z,30.97
2018-04-19T03:43:51.515Z,33.93
2018-04-19T03:46:19.857Z,31.40
2018-04-19T03:48:49.031Z,34.00
2018-04-19T03:51:17.367Z,32.87
2018-04-19T03:53:45.726Z,32.97
2018-04-19T03:56:14.093Z,31.93
2018-04-19T03:58:42.468Z,31.77
2018-04-19T04:01:11.678Z,31.70
2018-04-19T04:03:39.992Z,32.10
2018-04-19T04:06:08.350Z,30.20
2018-04-19T04:08:36.699Z,31.60
2018-04-19T04:11:05.857Z,30.17
2018-04-19T04:13:34.951Z,29.77
2018-04-19T04:16:03.341Z,30.43
2018-04-19T04:18:49.572Z,30.30
2018-04-19T04:21:18.760Z,29.97
2018-04-19T04:23:53.934Z,31.50
2018-04-19T04:26:22.996Z,31.73
2018-04-19T04:28:52.122Z,32.07
2018-04-19T04:31:20.555Z,31.13
2018-04-19T04:33:49.012Z,31.50
2018-04-19T04:36:17.504Z,29.80
2018-04-19T04:38:45.873Z,31.57
2018-04-19T04:41:14.342Z,31.17
2018-04-19T04:43:42.860Z,32.13
2018-04-19T04:46:12.625Z,30.60
2018-04-19T04:48:41.010Z,30.43
2018-04-19T04:51:09.410Z,28.83
2018-04-19T04:53:37.791Z,31.50
2018-04-19T04:56:06.196Z,31.27
2018-04-19T04:58:35.347Z,30.50
2018-04-19T05:01:03.761Z,31.47
2018-04-19T05:03:32.164Z,31.27
2018-04-19T05:06:01.309Z,30.13
2018-04-19T05:08:30.441Z,30.87
2018-04-19T05:10:59.697Z,31.83
2018-04-19T05:13:28.060Z,32.27
2018-04-19T05:15:56.406Z,32.07
2018-04-19T05:18:24.799Z,31.07
2018-04-19T05:20:53.150Z,31.00
2018-04-19T05:23:22.261Z,31.33
2018-04-19T05:25:51.484Z,30.83
2018-04-19T05:28:19.864Z,32.30
2018-04-19T05:30:48.208Z,32.53
2018-04-19T05:33:16.651Z,33.17
2018-04-19T05:35:45.939Z,30.70
2018-04-19T05:38:14.301Z,30.93
2018-04-19T05:40:42.660Z,32.27
2018-04-19T05:43:11.821Z,31.23
2018-04-19T05:45:40.244Z,32.13
2018-04-19T05:48:10.358Z,32.33
2018-04-19T05:50:42.448Z,31.07
2018-04-19T05:53:10.793Z,32.10
2018-04-19T05:55:39.960Z,31.48
2018-04-19T05:58:08.373Z,31.33
2018-04-19T06:00:37.499Z,32.63
2018-04-19T06:03:06.021Z,33.00
2018-04-19T06:05:35.389Z,33.40
2018-04-19T06:08:03.806Z,32.50
2018-04-19T06:10:32.331Z,32.07
2018-04-19T06:13:00.812Z,32.57
2018-04-19T06:15:29.168Z,30.07
2018-04-19T06:17:58.340Z,32.30
2018-04-19T06:20:26.898Z,31.30
2018-04-19T06:22:55.262Z,30.43
2018-04-19T06:25:23.589Z,30.57
2018-04-19T06:27:52.180Z,30.80
2018-04-19T06:30:20.947Z,31.30
2018-04-19T06:32:49.627Z,29.93
2018-04-19T06:35:18.078Z,33.37
2018-04-19T06:37:46.441Z,31.03
2018-04-19T06:40:14.812Z,30.00
2018-04-19T06:42:43.193Z,30.10
2018-04-19T06:45:11.586Z,29.40
2018-04-19T06:47:39.972Z,28.47
2018-04-19T06:50:08.349Z,28.10
2018-04-19T06:52:37.544Z,28.23
2018-04-19T06:55:06.867Z,27.80
2018-04-19T06:57:35.242Z,28.47
2018-04-19T07:00:04.108Z,27.40
2018-04-19T07:02:33.568Z,27.33
2018-04-19T07:05:01.973Z,27.50
2018-04-19T07:07:31.137Z,27.77
2018-04-19T07:09:59.761Z,27.03
2018-04-19T07:12:28.881Z,27.17
2018-04-19T07:14:57.265Z,26.43
2018-04-19T07:17:25.804Z,26.00
2018-04-19T07:19:54.944Z,25.50
2018-04-19T07:22:25.413Z,25.53
2018-04-19T07:24:54.550Z,27.67
2018-04-19T07:27:22.974Z,27.50
2018-04-19T07:29:51.415Z,26.57
2018-04-19T07:32:19.807Z,24.90
2018-04-19T07:34:48.177Z,24.77
2018-04-19T07:37:16.563Z,23.27
2018-04-19T07:39:45.007Z,23.63
2018-04-19T07:42:14.190Z,23.60
2018-04-19T07:44:43.352Z,23.62
2018-04-19T07:47:11.716Z,20.40
2018-04-19T07:49:40.150Z,23.10
2018-04-19T07:52:09.258Z,20.13
2018-04-19T07:54:38.410Z,20.00
2018-04-19T07:57:06.795Z,21.23
2018-04-19T07:59:35.161Z,18.10
2018-04-19T08:02:03.545Z,20.50
2018-04-19T08:04:33.051Z,21.43
2018-04-19T08:07:02.134Z,16.13
2018-04-19T08:09:30.520Z,19.50
2018-04-19T08:11:58.894Z,18.33
2018-04-19T08:14:27.286Z,18.20
2018-04-19T08:16:55.651Z,17.00
2018-04-19T08:19:24.083Z,15.40
2018-04-19T08:21:53.296Z,15.27
2018-04-19T08:24:21.702Z,17.00
2018-04-19T08:26:50.412Z,15.20
2018-04-19T08:29:18.782Z,16.07
2018-04-19T08:31:47.186Z,17.27
2018-04-19T08:34:15.568Z,15.73
2018-04-19T08:36:43.930Z,14.07
2018-04-19T08:39:12.306Z,15.50
2018-04-19T08:41:40.675Z,14.47
2018-04-19T08:44:09.053Z,15.10
2018-04-19T08:46:37.446Z,15.83
2018-04-19T08:49:06.743Z,15.13
2018-04-19T08:51:35.076Z,15.00
2018-04-19T08:54:04.143Z,14.77
2018-04-19T08:56:33.269Z,15.20
2018-04-19T08:59:01.678Z,13.27
2018-04-19T09:01:30.852Z,15.13
2018-04-19T09:03:59.931Z,15.77
2018-04-19T09:06:28.309Z,15.93
2018-04-19T09:08:56.685Z,15.27
2018-04-19T09:11:25.855Z,15.33
2018-04-19T09:13:54.204Z,14.73
2018-04-19T09:16:22.567Z,14.77
2018-04-19T09:18:50.949Z,15.50
2018-04-19T09:21:19.333Z,16.00
2018-04-19T09:23:47.694Z,14.70
2018-04-19T09:26:16.899Z,13.97
2018-04-19T09:28:45.297Z,12.83
2018-04-19T09:31:13.711Z,13.20
2018-04-19T09:33:42.837Z,14.53
2018-04-19T09:36:11.203Z,14.37
2018-04-19T09:38:40.214Z,13.82
2018-04-19T09:41:08.601Z,14.87
2018-04-19T09:43:37.693Z,16.57
2018-04-19T09:46:06.066Z,14.90
2018-04-19T09:48:35.272Z,14.00
2018-04-19T09:51:03.700Z,13.70
2018-04-19T09:53:32.130Z,13.90
2018-04-19T09:56:00.521Z,13.30
2018-04-19T09:58:28.932Z,14.00
2018-04-19T10:01:02.856Z,13.53
2018-04-19T10:03:37.496Z,14.35
2018-04-19T10:06:09.085Z,14.17
2018-04-19T10:08:37.767Z,14.47
2018-04-19T10:11:06.226Z,14.27
2018-04-19T10:13:34.569Z,13.83
2018-04-19T10:16:03.069Z,13.77
2018-04-19T10:18:31.401Z,13.87
2018-04-19T10:20:59.799Z,14.20
2018-04-19T10:23:28.159Z,13.82
2018-04-19T10:25:56.831Z,13.80
2018-04-19T10:28:25.281Z,14.18
2018-04-19T10:30:53.690Z,13.95
2018-04-19T10:33:22.804Z,14.47
2018-04-19T10:35:51.195Z,13.43
2018-04-19T10:38:19.554Z,14.85
2018-04-19T10:40:48.877Z,14.95
2018-04-19T10:43:17.282Z,14.20
2018-04-19T10:45:46.503Z,17.05
2018-04-19T10:48:14.948Z,14.95
2018-04-19T10:50:43.303Z,13.95
2018-04-19T10:53:11.769Z,14.38
2018-04-19T10:55:40.167Z,13.52
2018-04-19T10:58:08.546Z,14.18
2018-04-19T11:00:39.110Z,13.93
2018-04-19T11:03:08.252Z,15.10
2018-04-19T11:05:36.612Z,16.37
2018-04-19T11:08:05.754Z,15.73
2018-04-19T11:10:37.328Z,15.45
2018-04-19T11:13:05.707Z,15.02
2018-04-19T11:15:34.092Z,15.02
2018-04-19T11:18:04.052Z,15.27
2018-04-19T11:20:32.436Z,14.63
2018-04-19T11:23:01.082Z,15.55
2018-04-19T11:25:30.618Z,16.77
2018-04-19T11:27:58.982Z,14.13
2018-04-19T11:30:27.366Z,13.65
2018-04-19T11:32:55.757Z,12.68
2018-04-19T11:35:25.001Z,12.50
2018-04-19T11:37:53.334Z,13.40
2018-04-19T11:40:21.888Z,13.43
2018-04-19T11:42:51.011Z,12.20
2018-04-19T11:45:19.578Z,14.18
2018-04-19T11:47:47.958Z,14.00
2018-04-19T11:50:16.418Z,13.55
2018-04-19T11:52:45.579Z,13.80
2018-04-19T11:55:13.936Z,13.65
2018-04-19T11:57:43.215Z,14.05
2018-04-19T12:00:13.240Z,13.38
2018-04-19T12:05:17.713Z,12.93
2018-04-19T12:07:46.179Z,12.85
2018-04-19T12:10:15.386Z,14.75
2018-04-19T12:12:46.222Z,12.75
2018-04-19T12:15:14.891Z,12.18
2018-04-19T12:17:43.245Z,12.52
2018-04-19T12:20:12.388Z,11.82
2018-04-19T12:22:41.549Z,12.32
2018-04-19T12:25:09.928Z,13.25
2018-04-19T12:27:38.267Z,12.10
2018-04-19T12:30:06.803Z,12.70
2018-04-19T12:32:37.076Z,12.35
2018-04-19T12:35:07.893Z,11.60
2018-04-19T12:37:36.377Z,12.00
2018-04-19T12:40:04.848Z,11.45
2018-04-19T12:42:33.224Z,11.52
2018-04-19T12:45:01.976Z,10.33
2018-04-19T12:47:31.403Z,10.23
2018-04-19T12:49:59.797Z,9.73
2018-04-19T12:52:28.581Z,10.48
2018-04-19T12:54:56.972Z,10.85
2018-04-19T12:57:26.368Z,9.40
2018-04-19T12:59:54.796Z,11.18
2018-04-19T13:02:24.301Z,9.15
2018-04-19T13:04:52.858Z,8.18
2018-04-19T13:07:22.948Z,9.02
2018-04-19T13:09:52.244Z,10.52
2018-04-19T13:12:20.838Z,10.73
2018-04-19T13:14:50.242Z,10.68
2018-04-19T13:17:19.418Z,10.38
2018-04-19T13:19:49.053Z,9.25
2018-04-19T13:22:17.476Z,9.52
2018-04-19T13:24:46.924Z,7.93
2018-04-19T13:27:16.377Z,6.55
2018-04-19T13:29:44.724Z,7.10
2018-04-19T13:32:13.822Z,7.62
2018-04-19T13:34:42.672Z,7.32
2018-04-19T13:37:11.343Z,7.75
2018-04-19T13:39:41.605Z,7.10
2018-04-19T13:42:13.374Z,8.32
2018-04-19T13:44:41.782Z,8.73
2018-04-19T13:47:10.877Z,8.32
2018-04-19T13:49:40.053Z,7.70
2018-04-19T13:52:08.529Z,7.62
2018-04-19T13:54:39.089Z,6.90
2018-04-19T13:57:09.112Z,6.80
2018-04-19T13:59:41.170Z,7.87
2018-04-19T14:02:11.220Z,7.97
2018-04-19T14:04:40.327Z,7.62
2018-04-19T14:07:08.730Z,6.97
2018-04-19T14:09:38.164Z,7.28
2018-04-19T14:12:08.288Z,7.70
2018-04-19T14:14:37.447Z,7.28
2018-04-19T14:17:05.895Z,6.18
2018-04-19T14:19:37.395Z,6.20
2018-04-19T14:22:06.551Z,6.40
2018-04-19T14:24:34.962Z,5.85
2018-04-19T14:27:03.387Z,6.50
2018-04-19T14:29:32.167Z,7.12
2018-04-19T14:32:00.526Z,7.78
2018-04-19T14:34:29.848Z,6.82
2018-04-19T14:36:58.546Z,6.85
2018-04-19T14:39:26.943Z,6.93
2018-04-19T14:42:06.235Z,7.90
2018-04-19T14:44:37.006Z,7.72
2018-04-19T14:47:05.370Z,7.17
2018-04-19T14:49:34.017Z,7.72
2018-04-19T14:52:02.771Z,7.47
2018-04-19T14:54:31.671Z,8.15
2018-04-19T14:57:00.094Z,8.20
2018-04-19T14:59:29.340Z,8.98
2018-04-19T15:01:57.776Z,8.18
2018-04-19T15:04:27.732Z,8.07
2018-04-19T15:06:56.319Z,8.20
2018-04-19T15:09:24.860Z,8.05
2018-04-19T15:11:53.298Z,6.58
2018-04-19T15:14:22.368Z,6.70
2018-04-19T15:16:50.901Z,5.90
2018-04-19T15:19:23.518Z,6.07
2018-04-19T15:21:51.949Z,5.40
2018-04-19T15:24:20.511Z,5.30
2018-04-19T15:26:49.058Z,4.55
2018-04-19T15:29:17.511Z,4.57
2018-04-19T15:31:47.476Z,3.53
2018-04-19T15:34:15.923Z,3.65
2018-04-19T15:36:44.288Z,3.80
2018-04-19T15:39:13.592Z,3.75
2018-04-19T15:41:42.355Z,3.10
2018-04-19T15:44:10.824Z,3.03
2018-04-19T15:46:50.119Z,2.95
2018-04-19T15:49:18.763Z,3.05
2018-04-19T15:51:48.198Z,3.20
2018-04-19T15:54:17.443Z,3.62
2018-04-19T15:56:46.255Z,3.58
2018-04-19T15:59:14.586Z,3.45
2018-04-19T16:01:55.036Z,3.35
2018-04-19T16:04:23.338Z,4.03
2018-04-19T16:06:51.862Z,4.00
2018-04-19T16:09:20.979Z,4.35
2018-04-19T16:11:52.856Z,4.40
2018-04-19T16:14:19.297Z,4.20
2018-04-19T16:16:48.271Z,4.35
2018-04-19T16:19:18.295Z,4.82
2018-04-19T16:21:46.664Z,5.90
2018-04-19T16:24:16.049Z,5.30
2018-04-19T16:26:44.475Z,5.70
2018-04-19T16:29:12.859Z,5.50
2018-04-19T16:31:41.265Z,5.95
2018-04-19T16:34:09.703Z,4.93
2018-04-19T16:36:38.930Z,5.45
2018-04-19T16:39:07.325Z,5.57
2018-04-19T16:41:36.765Z,5.65
2018-04-19T16:44:05.146Z,5.47
2018-04-19T16:46:33.509Z,5.78
2018-04-19T16:49:04.597Z,5.87
2018-04-19T16:51:34.244Z,5.65
2018-04-19T16:54:04.160Z,6.03
2018-04-19T16:56:33.454Z,7.35
2018-04-19T16:59:01.843Z,7.60
2018-04-19T17:01:30.993Z,7.37
2018-04-19T17:03:59.805Z,6.65
2018-04-19T17:06:29.177Z,7.97
2018-04-19T17:08:58.627Z,8.80
2018-04-19T17:11:27.745Z,8.90
2018-04-19T17:13:56.937Z,9.47
2018-04-19T17:16:25.622Z,9.20
2018-04-19T17:18:54.806Z,9.43
2018-04-19T17:21:23.978Z,8.90
2018-04-19T17:23:52.392Z,8.95
2018-04-19T17:26:20.965Z,8.77
2018-04-19T17:28:50.176Z,8.60
2018-04-19T17:31:19.338Z,9.07
2018-04-19T17:33:49.088Z,9.25
2018-04-19T17:36:18.355Z,10.10
2018-04-19T17:38:48.533Z,9.95
2018-04-19T17:41:17.896Z,10.40
2018-04-19T17:43:47.225Z,10.25
2018-04-19T17:46:15.755Z,9.75
2018-04-19T17:48:44.488Z,12.00
2018-04-19T17:51:13.351Z,12.07
2018-04-19T17:53:42.851Z,11.65
2018-04-19T17:56:11.298Z,11.15
2018-04-19T17:58:39.685Z,11.38
2018-04-19T18:01:08.108Z,13.27
2018-04-19T18:03:37.323Z,14.13
2018-04-19T18:06:06.556Z,13.17
2018-04-19T18:08:34.966Z,13.23
2018-04-19T18:11:03.433Z,14.00
2018-04-19T18:13:31.932Z,13.73
2018-04-19T18:16:01.869Z,15.45
2018-04-19T18:18:31.031Z,13.95
2018-04-19T18:21:00.084Z,11.07
2018-04-19T18:23:28.460Z,13.00
2018-04-19T18:25:57.072Z,12.20
2018-04-19T18:28:25.501Z,11.98
2018-04-19T18:30:54.634Z,13.62
2018-04-19T18:33:23.096Z,11.90
2018-04-19T18:35:51.492Z,12.85
2018-04-19T18:38:20.575Z,12.93
2018-04-19T18:40:48.929Z,13.63
2018-04-19T18:43:18.595Z,13.55
2018-04-19T18:45:47.677Z,13.83
2018-04-19T18:48:16.121Z,13.07
2018-04-19T18:50:44.493Z,13.53
2018-04-19T18:53:13.625Z,14.15
2018-04-19T18:55:42.050Z,14.40
2018-04-19T18:58:10.977Z,14.97
2018-04-19T19:00:39.483Z,14.07
2018-04-19T19:03:08.433Z,15.27
2018-04-19T19:05:37.666Z,14.37
2018-04-19T19:08:06.095Z,14.52
2018-04-19T19:10:34.590Z,15.60
2018-04-19T19:13:03.933Z,15.93
2018-04-19T19:19:18.100Z,16.10
2018-04-19T19:21:46.583Z,16.17
2018-04-19T19:24:15.703Z,15.63
2018-04-19T19:26:45.437Z,15.60
2018-04-19T19:29:14.712Z,17.50
2018-04-19T19:31:43.789Z,13.60
2018-04-19T19:34:12.217Z,14.13
2018-04-19T19:36:41.377Z,16.23
2018-04-19T19:39:11.318Z,17.50
2018-04-19T19:41:39.714Z,15.67
2018-04-19T19:44:09.843Z,16.40
2018-04-19T19:46:38.971Z,16.83
2018-04-19T19:49:08.726Z,17.57
2018-04-19T19:51:40.484Z,17.63
2018-04-19T19:54:09.125Z,16.10
2018-04-19T19:56:42.691Z,15.93
2018-04-19T19:59:12.037Z,17.10
2018-04-19T20:01:40.410Z,17.20
2018-04-19T20:04:09.780Z,15.70
2018-04-19T20:06:39.319Z,16.80
2018-04-19T20:09:08.048Z,16.97
2018-04-19T20:11:37.652Z,16.63
2018-04-19T20:14:06.355Z,17.53
2018-04-19T20:16:35.759Z,16.80
2018-04-19T20:19:05.035Z,16.07
2018-04-19T20:21:33.515Z,16.60
2018-04-19T20:24:01.937Z,16.50
2018-04-19T20:26:31.113Z,16.77
2018-04-19T20:28:59.571Z,15.50
2018-04-19T20:31:27.961Z,16.70
2018-04-19T20:33:56.323Z,16.43
2018-04-19T20:36:24.693Z,16.47
2018-04-19T20:38:53.848Z,17.90
2018-04-19T20:41:23.148Z,16.77
2018-04-19T20:43:52.369Z,17.03
2018-04-19T20:46:21.644Z,17.63
2018-04-19T20:48:51.055Z,17.03
2018-04-19T20:51:19.473Z,17.53
2018-04-19T20:53:47.979Z,17.43
2018-04-19T20:56:16.327Z,17.63
2018-04-19T20:58:44.793Z,16.57
2018-04-19T21:01:13.981Z,16.57
2018-04-19T21:03:43.253Z,18.03
2018-04-19T21:06:12.446Z,17.40
2018-04-19T21:08:42.338Z,17.43
2018-04-19T21:11:11.561Z,18.10
2018-04-19T21:13:41.303Z,16.93
2018-04-19T21:16:09.693Z,18.00
2018-04-19T21:18:38.102Z,17.13
2018-04-19T21:21:06.518Z,17.53
2018-04-19T21:23:34.948Z,16.80
2018-04-19T21:26:03.525Z,17.20
2018-04-19T21:28:32.096Z,17.23
2018-04-19T21:31:00.623Z,14.00
2018-04-19T21:33:29.042Z,16.97
2018-04-19T21:35:57.491Z,17.43
2018-04-19T21:38:26.641Z,16.57
2018-04-19T21:40:54.977Z,17.00
2018-04-19T21:43:24.132Z,16.47
2018-04-19T21:45:52.903Z,16.17
2018-04-19T21:48:21.267Z,15.87
2018-04-19T21:50:49.656Z,16.57
2018-04-19T21:53:18.096Z,16.70
2018-04-19T21:55:46.543Z,15.60
2018-04-19T21:58:14.996Z,15.87
2018-04-19T22:00:43.450Z,15.77
2018-04-19T22:03:11.920Z,15.83
2018-04-19T22:05:41.070Z,16.00
2018-04-19T22:08:09.595Z,16.47
2018-04-19T22:10:37.973Z,17.37
2018-04-19T22:13:07.092Z,16.17
2018-04-19T22:15:35.452Z,15.97
2018-04-19T22:18:04.600Z,15.90
2018-04-19T22:20:32.960Z,16.20
2018-04-19T22:23:01.346Z,16.73
2018-04-19T22:25:29.715Z,17.00
2018-04-19T22:27:58.058Z,15.97
2018-04-19T22:30:27.434Z,15.70
2018-04-19T22:32:55.823Z,15.77
2018-04-19T22:35:25.098Z,16.37
2018-04-19T22:37:53.600Z,15.40
2018-04-19T22:40:22.030Z,16.20
2018-04-19T22:42:50.406Z,16.07
2018-04-19T22:45:18.830Z,15.83
2018-04-19T22:47:47.256Z,16.37
2018-04-19T22:50:16.627Z,14.80
2018-04-19T22:52:44.985Z,15.70
2018-04-19T22:55:13.363Z,16.30
2018-04-19T22:57:42.314Z,14.50
2018-04-19T23:00:10.717Z,14.60
2018-04-19T23:02:39.103Z,15.47
2018-04-19T23:05:07.526Z,15.77
2018-04-19T23:07:36.738Z,14.90
2018-04-19T23:10:05.255Z,15.87
2018-04-19T23:12:33.663Z,16.27
2018-04-19T23:15:02.009Z,15.90
2018-04-19T23:17:30.446Z,15.63
2018-04-19T23:19:59.469Z,15.77
2018-04-19T23:22:35.814Z,15.87
2018-04-19T23:25:04.994Z,16.37
2018-04-19T23:27:33.376Z,16.20
2018-04-19T23:30:01.807Z,16.97
2018-04-19T23:32:30.164Z,16.13
2018-04-19T23:34:58.621Z,16.37
2018-04-19T23:37:27.790Z,17.63
2018-04-19T23:39:56.374Z,16.60
2018-04-19T23:42:24.747Z,17.07
2018-04-19T23:44:53.232Z,15.63
2018-04-19T23:47:21.637Z,17.57
2018-04-19T23:49:50.784Z,17.60
2018-04-19T23:52:19.184Z,17.17
2018-04-19T23:54:47.585Z,16.43
2018-04-19T23:57:15.991Z,16.70
2018-04-19T23:59:45.154Z,17.73
